Southport, North Carolina
Current Conditions -  °F | °C
As of 2:15 PM on Monday 22 Dec 2014 (Local Time) from KSUT Reporting Station
Overcast Overcast  
Wind Chill:   Ceiling: 600
Heat Index:   Visibility: 10mi
Dew Point:   Wind: 9mph
Humidity: 90%   Direction: 360°N
Pressure: 29.99"   Gusts: NA
Location:  33.92°N, 78.02°W
Report Text: KSUT 221915Z AUTO 36008KT 10SM BKN006 BKN011 OVC110 09/07 A2999 RMK AO2 T00890074
Loading
Personal Weather Stations






























Interactive Weather Map New forecast layout! Learn more

10-Day Weather Forecast

Advertisements
Track Severe Weather on mobile